sensor_id;sensor_type;location;lat;lon;timestamp;pressure;altitude;pressure_sealevel;temperature;humidity
71559;BME280;59382;43.852;25.952;2022-08-21T14:01:49;100196.75;;;30.43;45.58
71559;BME280;59382;43.852;25.952;2022-08-21T14:04:22;100189.97;;;30.28;44.77
71559;BME280;59382;43.852;25.952;2022-08-21T14:06:49;100204.72;;;30.29;44.74
71559;BME280;59382;43.852;25.952;2022-08-21T14:09:31;100195.34;;;30.09;44.71
71559;BME280;59382;43.852;25.952;2022-08-21T14:11:59;100212.66;;;30.03;44.80
71559;BME280;59382;43.852;25.952;2022-08-21T14:14:32;100202.00;;;29.93;44.71
71559;BME280;59382;43.852;25.952;2022-08-21T14:17:03;100210.72;;;29.91;44.99
71559;BME280;59382;43.852;25.952;2022-08-21T14:19:40;100194.53;;;29.81;45.40
71559;BME280;59382;43.852;25.952;2022-08-21T14:24:47;100192.78;;;29.77;45.37
71559;BME280;59382;43.852;25.952;2022-08-21T14:27:17;100176.34;;;29.72;45.92
71559;BME280;59382;43.852;25.952;2022-08-21T14:29:43;100186.91;;;29.66;46.37
71559;BME280;59382;43.852;25.952;2022-08-21T14:32:26;100176.25;;;29.56;47.22
71559;BME280;59382;43.852;25.952;2022-08-21T14:34:55;100167.53;;;29.58;46.91
71559;BME280;59382;43.852;25.952;2022-08-21T14:37:22;100169.41;;;29.66;46.64
71559;BME280;59382;43.852;25.952;2022-08-21T14:39:48;100169.50;;;29.69;46.55
71559;BME280;59382;43.852;25.952;2022-08-21T14:42:15;100168.69;;;29.69;46.60
71559;BME280;59382;43.852;25.952;2022-08-21T14:44:47;100175.19;;;29.73;46.74
71559;BME280;59382;43.852;25.952;2022-08-21T14:47:13;100176.81;;;29.74;46.61
71559;BME280;59382;43.852;25.952;2022-08-21T14:49:39;100179.34;;;29.79;46.33
71559;BME280;59382;43.852;25.952;2022-08-21T14:52:05;100175.88;;;29.82;46.31
71559;BME280;59382;43.852;25.952;2022-08-21T14:54:31;100168.22;;;29.79;46.43
71559;BME280;59382;43.852;25.952;2022-08-21T14:57:04;100167.28;;;29.75;46.11
71559;BME280;59382;43.852;25.952;2022-08-21T14:59:31;100170.75;;;29.84;45.86
71559;BME280;59382;43.852;25.952;2022-08-21T15:01:58;100163.56;;;29.83;45.56
71559;BME280;59382;43.852;25.952;2022-08-21T15:04:24;100153.84;;;29.77;45.70
71559;BME280;59382;43.852;25.952;2022-08-21T15:06:50;100158.91;;;29.87;45.60
71559;BME280;59382;43.852;25.952;2022-08-21T15:09:16;100161.34;;;29.88;45.52
71559;BME280;59382;43.852;25.952;2022-08-21T15:11:41;100142.03;;;29.80;45.71
71559;BME280;59382;43.852;25.952;2022-08-21T15:14:11;100165.38;;;29.91;45.71
71559;BME280;59382;43.852;25.952;2022-08-21T15:16:43;100151.38;;;29.87;45.75
71559;BME280;59382;43.852;25.952;2022-08-21T15:19:08;100150.34;;;29.92;45.47
71559;BME280;59382;43.852;25.952;2022-08-21T15:21:34;100147.97;;;29.94;45.54
71559;BME280;59382;43.852;25.952;2022-08-21T15:23:59;100133.53;;;29.88;45.27
71559;BME280;59382;43.852;25.952;2022-08-21T15:26:25;100138.50;;;29.95;45.30
71559;BME280;59382;43.852;25.952;2022-08-21T15:28:51;100136.66;;;29.87;45.49
71559;BME280;59382;43.852;25.952;2022-08-21T15:31:17;100126.25;;;29.84;45.09
71559;BME280;59382;43.852;25.952;2022-08-21T15:33:42;100127.13;;;29.88;45.26
71559;BME280;59382;43.852;25.952;2022-08-21T15:36:08;100126.44;;;29.91;45.17
71559;BME280;59382;43.852;25.952;2022-08-21T15:38:34;100131.75;;;29.96;45.09
71559;BME280;59382;43.852;25.952;2022-08-21T15:41:02;100117.84;;;29.96;45.03
71559;BME280;59382;43.852;25.952;2022-08-21T15:43:30;100127.75;;;30.09;44.42
71559;BME280;59382;43.852;25.952;2022-08-21T15:46:00;100134.25;;;30.13;44.22
71559;BME280;59382;43.852;25.952;2022-08-21T15:48:27;100144.31;;;30.17;44.18
71559;BME280;59382;43.852;25.952;2022-08-21T15:50:52;100159.16;;;30.21;43.89
71559;BME280;59382;43.852;25.952;2022-08-21T15:53:18;100162.78;;;30.22;43.85
71559;BME280;59382;43.852;25.952;2022-08-21T15:55:44;100162.88;;;30.13;44.09
71559;BME280;59382;43.852;25.952;2022-08-21T15:58:17;100152.97;;;30.00;44.43
71559;BME280;59382;43.852;25.952;2022-08-21T16:00:46;100166.41;;;29.98;44.41
71559;BME280;59382;43.852;25.952;2022-08-21T16:03:15;100154.72;;;29.93;44.68
71559;BME280;59382;43.852;25.952;2022-08-21T16:05:43;100148.25;;;29.89;44.73
71559;BME280;59382;43.852;25.952;2022-08-21T16:08:09;100148.69;;;29.91;44.80
71559;BME280;59382;43.852;25.952;2022-08-21T16:10:36;100137.31;;;29.96;44.84
71559;BME280;59382;43.852;25.952;2022-08-21T16:13:05;100121.56;;;29.88;45.69
71559;BME280;59382;43.852;25.952;2022-08-21T16:15:32;100123.81;;;29.82;46.41
71559;BME280;59382;43.852;25.952;2022-08-21T16:17:58;100136.97;;;29.70;47.38
71559;BME280;59382;43.852;25.952;2022-08-21T16:20:27;100147.06;;;29.62;48.39
71559;BME280;59382;43.852;25.952;2022-08-21T16:22:54;100161.50;;;29.56;48.75
71559;BME280;59382;43.852;25.952;2022-08-21T16:25:21;100156.88;;;29.48;49.13
71559;BME280;59382;43.852;25.952;2022-08-21T16:27:50;100161.03;;;29.54;49.39
71559;BME280;59382;43.852;25.952;2022-08-21T16:30:21;100171.94;;;29.59;48.98
71559;BME280;59382;43.852;25.952;2022-08-21T16:32:49;100161.41;;;29.52;48.95
71559;BME280;59382;43.852;25.952;2022-08-21T16:35:17;100166.59;;;29.54;48.42
71559;BME280;59382;43.852;25.952;2022-08-21T16:37:45;100167.31;;;29.51;48.52
71559;BME280;59382;43.852;25.952;2022-08-21T16:40:11;100170.34;;;29.46;48.58
71559;BME280;59382;43.852;25.952;2022-08-21T16:42:39;100186.19;;;29.45;49.54
71559;BME280;59382;43.852;25.952;2022-08-21T16:45:12;100132.16;;;29.19;50.44
71559;BME280;59382;43.852;25.952;2022-08-21T16:47:38;100137.94;;;29.26;50.59
71559;BME280;59382;43.852;25.952;2022-08-21T16:50:04;100137.72;;;29.19;50.69
71559;BME280;59382;43.852;25.952;2022-08-21T16:52:32;100145.69;;;29.20;51.30
71559;BME280;59382;43.852;25.952;2022-08-21T16:54:58;100144.88;;;29.20;51.69
71559;BME280;59382;43.852;25.952;2022-08-21T16:57:24;100148.00;;;29.18;51.74
71559;BME280;59382;43.852;25.952;2022-08-21T16:59:50;100155.28;;;29.23;51.93
71559;BME280;59382;43.852;25.952;2022-08-21T17:04:55;100156.94;;;29.24;52.05
71559;BME280;59382;43.852;25.952;2022-08-21T17:07:20;100161.53;;;29.20;51.40
71559;BME280;59382;43.852;25.952;2022-08-21T17:09:46;100162.25;;;29.17;50.98
71559;BME280;59382;43.852;25.952;2022-08-21T17:12:14;100177.31;;;29.16;51.06
71559;BME280;59382;43.852;25.952;2022-08-21T17:14:40;100163.84;;;28.94;51.35
71559;BME280;59382;43.852;25.952;2022-08-21T17:17:34;100203.13;;;29.04;51.93
71559;BME280;59382;43.852;25.952;2022-08-21T17:20:03;100210.81;;;28.99;52.68
71559;BME280;59382;43.852;25.952;2022-08-21T17:22:29;100225.88;;;28.98;53.22
71559;BME280;59382;43.852;25.952;2022-08-21T17:24:55;100231.88;;;28.88;52.73
71559;BME280;59382;43.852;25.952;2022-08-21T17:27:22;100262.91;;;28.90;52.26
71559;BME280;59382;43.852;25.952;2022-08-21T17:29:56;100266.78;;;28.77;52.15
71559;BME280;59382;43.852;25.952;2022-08-21T17:32:22;100261.88;;;28.61;52.25
71559;BME280;59382;43.852;25.952;2022-08-21T17:37:30;100287.88;;;28.36;52.31
71559;BME280;59382;43.852;25.952;2022-08-21T17:40:10;100294.09;;;28.33;53.01
71559;BME280;59382;43.852;25.952;2022-08-21T17:42:46;100296.81;;;28.21;53.69
71559;BME280;59382;43.852;25.952;2022-08-21T17:45:15;100270.34;;;27.74;53.72
71559;BME280;59382;43.852;25.952;2022-08-21T17:47:52;100319.41;;;27.82;54.00
71559;BME280;59382;43.852;25.952;2022-08-21T17:50:25;100306.97;;;27.59;54.40
71559;BME280;59382;43.852;25.952;2022-08-21T17:52:54;100318.72;;;27.56;54.53
71559;BME280;59382;43.852;25.952;2022-08-21T17:55:22;100341.75;;;27.48;54.50
71559;BME280;59382;43.852;25.952;2022-08-21T18:03:32;100326.50;;;27.17;55.02
71559;BME280;59382;43.852;25.952;2022-08-21T18:06:00;100359.72;;;27.42;55.53
71559;BME280;59382;43.852;25.952;2022-08-21T18:08:25;100334.16;;;27.28;55.93
71559;BME280;59382;43.852;25.952;2022-08-21T18:10:51;100340.34;;;27.25;56.16
71559;BME280;59382;43.852;25.952;2022-08-21T18:13:27;100344.09;;;27.21;56.75
71559;BME280;59382;43.852;25.952;2022-08-21T18:15:55;100351.28;;;27.13;56.70
71559;BME280;59382;43.852;25.952;2022-08-21T18:18:22;100350.47;;;27.04;57.13
71559;BME280;59382;43.852;25.952;2022-08-21T18:20:50;100368.06;;;27.08;57.15
71559;BME280;59382;43.852;25.952;2022-08-21T18:23:18;100363.19;;;27.05;57.25
71559;BME280;59382;43.852;25.952;2022-08-21T18:25:49;100363.19;;;27.05;57.62
71559;BME280;59382;43.852;25.952;2022-08-21T18:28:18;100361.25;;;26.97;57.65
71559;BME280;59382;43.852;25.952;2022-08-21T18:30:44;100365.16;;;26.96;57.42
71559;BME280;59382;43.852;25.952;2022-08-21T18:33:11;100354.75;;;26.84;57.62
71559;BME280;59382;43.852;25.952;2022-08-21T18:35:40;100350.38;;;26.75;57.72
71559;BME280;59382;43.852;25.952;2022-08-21T18:38:08;100345.13;;;26.65;58.17
71559;BME280;59382;43.852;25.952;2022-08-21T18:40:37;100365.31;;;26.74;58.06
71559;BME280;59382;43.852;25.952;2022-08-21T18:43:05;100352.13;;;26.71;58.47
71559;BME280;59382;43.852;25.952;2022-08-21T18:45:31;100329.03;;;26.67;58.38
71559;BME280;59382;43.852;25.952;2022-08-21T18:48:01;100326.91;;;26.81;58.53
71559;BME280;59382;43.852;25.952;2022-08-21T18:50:37;100326.25;;;26.93;58.62
71559;BME280;59382;43.852;25.952;2022-08-21T18:53:12;100292.03;;;26.80;58.22
71559;BME280;59382;43.852;25.952;2022-08-21T18:55:39;100317.06;;;27.09;58.00
71559;BME280;59382;43.852;25.952;2022-08-21T18:58:14;100302.56;;;27.12;57.92
71559;BME280;59382;43.852;25.952;2022-08-21T19:00:45;100307.75;;;27.22;58.18
71559;BME280;59382;43.852;25.952;2022-08-21T19:03:14;100327.94;;;27.31;57.92
71559;BME280;59382;43.852;25.952;2022-08-21T19:05:40;100319.47;;;27.36;57.79
71559;BME280;59382;43.852;25.952;2022-08-21T19:08:13;100301.88;;;27.32;57.76
71559;BME280;59382;43.852;25.952;2022-08-21T19:10:41;100303.81;;;27.40;58.00
71559;BME280;59382;43.852;25.952;2022-08-21T19:13:09;100296.31;;;27.41;57.77
71559;BME280;59382;43.852;25.952;2022-08-21T19:15:38;100284.69;;;27.47;57.93
71559;BME280;59382;43.852;25.952;2022-08-21T19:18:09;100289.38;;;27.55;58.12
71559;BME280;59382;43.852;25.952;2022-08-21T19:20:36;100279.91;;;27.56;57.99
71559;BME280;59382;43.852;25.952;2022-08-21T19:23:06;100271.59;;;27.56;57.90
71559;BME280;59382;43.852;25.952;2022-08-21T19:25:33;100278.72;;;27.66;58.13
71559;BME280;59382;43.852;25.952;2022-08-21T19:27:59;100284.88;;;27.71;57.63
71559;BME280;59382;43.852;25.952;2022-08-21T19:30:25;100277.72;;;27.70;57.28
71559;BME280;59382;43.852;25.952;2022-08-21T19:32:52;100282.59;;;27.73;57.47
71559;BME280;59382;43.852;25.952;2022-08-21T19:35:18;100271.69;;;27.68;57.29
71559;BME280;59382;43.852;25.952;2022-08-21T19:37:44;100277.91;;;27.65;57.50
71559;BME280;59382;43.852;25.952;2022-08-21T19:40:11;100272.84;;;27.67;57.82
71559;BME280;59382;43.852;25.952;2022-08-21T19:42:38;100263.72;;;27.67;58.06
71559;BME280;59382;43.852;25.952;2022-08-21T19:45:05;100271.03;;;27.71;58.00
71559;BME280;59382;43.852;25.952;2022-08-21T19:47:31;100257.50;;;27.70;58.23
71559;BME280;59382;43.852;25.952;2022-08-21T19:49:58;100251.63;;;27.71;57.96
71559;BME280;59382;43.852;25.952;2022-08-21T19:52:25;100259.75;;;27.76;58.32
71559;BME280;59382;43.852;25.952;2022-08-21T19:54:51;100259.41;;;27.78;57.90
71559;BME280;59382;43.852;25.952;2022-08-21T19:57:17;100254.88;;;27.73;57.47
71559;BME280;59382;43.852;25.952;2022-08-21T19:59:43;100259.94;;;27.71;57.48
71559;BME280;59382;43.852;25.952;2022-08-21T20:02:10;100262.09;;;27.66;57.61
71559;BME280;59382;43.852;25.952;2022-08-21T20:04:38;100262.78;;;27.54;57.67
71559;BME280;59382;43.852;25.952;2022-08-21T20:07:40;100273.13;;;27.45;58.18
71559;BME280;59382;43.852;25.952;2022-08-21T20:10:09;100265.94;;;27.44;57.79
71559;BME280;59382;43.852;25.952;2022-08-21T20:12:53;100265.94;;;27.44;57.84
71559;BME280;59382;43.852;25.952;2022-08-21T20:15:20;100256.19;;;27.47;58.28
71559;BME280;59382;43.852;25.952;2022-08-21T20:18:06;100247.72;;;27.43;58.93
71559;BME280;59382;43.852;25.952;2022-08-21T20:20:33;100259.22;;;27.54;58.61
71559;BME280;59382;43.852;25.952;2022-08-21T20:23:02;100245.84;;;27.56;58.86
71559;BME280;59382;43.852;25.952;2022-08-21T20:25:32;100247.16;;;27.58;58.80
71559;BME280;59382;43.852;25.952;2022-08-21T20:27:58;100245.97;;;27.59;58.78
71559;BME280;59382;43.852;25.952;2022-08-21T20:30:24;100245.16;;;27.59;59.01
71559;BME280;59382;43.852;25.952;2022-08-21T20:32:50;100242.06;;;27.60;58.88
71559;BME280;59382;43.852;25.952;2022-08-21T20:35:16;100239.78;;;27.62;58.89
71559;BME280;59382;43.852;25.952;2022-08-21T20:37:41;100243.03;;;27.64;58.87
71559;BME280;59382;43.852;25.952;2022-08-21T20:40:09;100214.28;;;27.48;58.82
71559;BME280;59382;43.852;25.952;2022-08-21T20:42:40;100242.34;;;27.67;58.74
71559;BME280;59382;43.852;25.952;2022-08-21T20:45:07;100239.72;;;27.71;58.76
71559;BME280;59382;43.852;25.952;2022-08-21T20:47:32;100222.19;;;27.58;58.67
71559;BME280;59382;43.852;25.952;2022-08-21T20:50:03;100241.19;;;27.68;58.58
71559;BME280;59382;43.852;25.952;2022-08-21T20:52:33;100243.97;;;27.68;58.51
71559;BME280;59382;43.852;25.952;2022-08-21T20:55:23;100219.88;;;27.60;58.72
71559;BME280;59382;43.852;25.952;2022-08-21T20:57:55;100243.31;;;27.71;58.99
71559;BME280;59382;43.852;25.952;2022-08-21T21:00:25;100203.97;;;27.49;58.84
71559;BME280;59382;43.852;25.952;2022-08-21T21:03:05;100232.06;;;27.68;58.95
71559;BME280;59382;43.852;25.952;2022-08-21T21:05:57;100231.63;;;27.57;58.83
71559;BME280;59382;43.852;25.952;2022-08-21T21:08:27;100241.31;;;27.51;58.64
71559;BME280;59382;43.852;25.952;2022-08-21T21:10:55;100239.56;;;27.38;59.10
71559;BME280;59382;43.852;25.952;2022-08-21T21:13:29;100240.25;;;27.35;59.32
71559;BME280;59382;43.852;25.952;2022-08-21T21:16:25;100243.69;;;27.32;59.36
71559;BME280;59382;43.852;25.952;2022-08-21T21:18:57;100256.88;;;27.35;59.17
71559;BME280;59382;43.852;25.952;2022-08-21T21:24:08;100244.44;;;27.41;58.78
71559;BME280;59382;43.852;25.952;2022-08-21T21:30:02;100238.91;;;27.41;58.71
71559;BME280;59382;43.852;25.952;2022-08-21T21:32:28;100253.25;;;27.43;58.84
71559;BME280;59382;43.852;25.952;2022-08-21T21:34:54;100238.13;;;27.32;58.75
71559;BME280;59382;43.852;25.952;2022-08-21T21:46:16;100275.59;;;27.38;59.85
71559;BME280;59382;43.852;25.952;2022-08-21T21:57:56;100279.22;;;26.67;60.73
71559;BME280;59382;43.852;25.952;2022-08-21T22:00:27;100306.22;;;26.70;61.15
71559;BME280;59382;43.852;25.952;2022-08-21T22:03:11;100314.69;;;26.48;61.62
71559;BME280;59382;43.852;25.952;2022-08-21T22:05:55;100311.25;;;26.25;62.52
71559;BME280;59382;43.852;25.952;2022-08-21T22:11:14;100282.72;;;25.91;63.22
71559;BME280;59382;43.852;25.952;2022-08-21T22:13:55;100295.25;;;25.97;63.40
71559;BME280;59382;43.852;25.952;2022-08-21T22:16:26;100297.22;;;25.96;62.97
71559;BME280;59382;43.852;25.952;2022-08-21T22:18:55;100293.13;;;25.94;63.06
71559;BME280;59382;43.852;25.952;2022-08-21T22:21:33;100293.53;;;26.01;62.98
71559;BME280;59382;43.852;25.952;2022-08-21T22:24:11;100302.31;;;26.20;62.58
71559;BME280;59382;43.852;25.952;2022-08-21T22:26:41;100311.94;;;26.39;61.82
71559;BME280;59382;43.852;25.952;2022-08-21T22:29:14;100307.34;;;26.52;61.77
71559;BME280;59382;43.852;25.952;2022-08-21T22:31:41;100313.06;;;26.64;61.55
71559;BME280;59382;43.852;25.952;2022-08-21T22:34:15;100323.16;;;26.77;61.60
71559;BME280;59382;43.852;25.952;2022-08-21T22:36:46;100333.09;;;26.87;61.02
71559;BME280;59382;43.852;25.952;2022-08-21T22:39:43;100345.28;;;26.94;60.96
71559;BME280;59382;43.852;25.952;2022-08-21T22:42:20;100349.84;;;26.99;60.18
71559;BME280;59382;43.852;25.952;2022-08-21T22:44:51;100364.81;;;27.06;60.35
71559;BME280;59382;43.852;25.952;2022-08-21T22:47:31;100365.66;;;27.07;60.32
71559;BME280;59382;43.852;25.952;2022-08-21T22:49:58;100369.03;;;27.12;60.12
71559;BME280;59382;43.852;25.952;2022-08-21T22:52:31;100364.63;;;27.11;60.61
71559;BME280;59382;43.852;25.952;2022-08-21T22:55:03;100357.81;;;27.09;60.07
71559;BME280;59382;43.852;25.952;2022-08-21T22:57:41;100375.53;;;27.16;59.80
71559;BME280;59382;43.852;25.952;2022-08-21T23:00:44;100369.03;;;27.12;60.62
71559;BME280;59382;43.852;25.952;2022-08-21T23:03:30;100388.44;;;27.12;60.82
71559;BME280;59382;43.852;25.952;2022-08-21T23:05:59;100373.44;;;27.13;60.26
71559;BME280;59382;43.852;25.952;2022-08-21T23:08:35;100379.47;;;27.15;60.59
71559;BME280;59382;43.852;25.952;2022-08-21T23:11:06;100375.53;;;27.16;60.69
71559;BME280;59382;43.852;25.952;2022-08-21T23:13:41;100376.50;;;27.20;60.40
71559;BME280;59382;43.852;25.952;2022-08-21T23:22:03;100376.50;;;27.20;60.12
71559;BME280;59382;43.852;25.952;2022-08-21T23:27:33;100378.00;;;27.09;60.89
71559;BME280;59382;43.852;25.952;2022-08-21T23:30:16;100377.72;;;27.02;61.19
71559;BME280;59382;43.852;25.952;2022-08-21T23:35:46;100371.84;;;27.04;60.77
71559;BME280;59382;43.852;25.952;2022-08-21T23:49:46;100387.47;;;27.00;60.58
71559;BME280;59382;43.852;25.952;2022-08-21T23:53:03;100389.56;;;27.11;60.52
71559;BME280;59382;43.852;25.952;2022-08-21T23:55:39;100393.47;;;27.10;60.36
